Time;durP1;ratioP1;P1;durP2;ratioP2;P2;SDS_P1;SDS_P2;PMS_P1;PMS_P2;Temp;Humidity;BMP_temperature;BMP_pressure;BME280_temperature;BME280_humidity;BME280_pressure;Samples;Min_cycle;Max_cycle;Signal;HPM_P1;HPM_P2
2021/08/08 00:01:36;;;;;;;12.47;10.90;;;;;;;20.86;87.80;100278.41;1750262;82;20877;-83
2021/08/08 00:04:04;;;;;;;11.20;10.10;;;;;;;20.87;87.79;100286.73;1750443;82;20845;-82
2021/08/08 00:06:31;;;;;;;11.93;10.82;;;;;;;20.87;87.79;100293.89;1750373;82;21082;-82
2021/08/08 00:09:00;;;;;;;11.20;9.95;;;;;;;20.88;87.77;100295.07;1750113;82;20976;-82
2021/08/08 00:11:27;;;;;;;11.57;10.45;;;;;;;20.89;87.75;100283.91;1750508;80;21417;-83
2021/08/08 00:13:53;;;;;;;12.58;11.28;;;;;;;20.89;87.68;100282.57;1750299;81;21346;-83
2021/08/08 00:16:20;;;;;;;11.48;10.48;;;;;;;20.90;87.71;100286.92;1750270;82;20975;-83
2021/08/08 00:18:47;;;;;;;12.18;10.00;;;;;;;20.91;87.72;100291.23;1750512;82;21125;-82
2021/08/08 00:21:14;;;;;;;11.45;9.78;;;;;;;20.93;87.72;100292.41;1750170;81;20873;-83
2021/08/08 00:23:41;;;;;;;11.73;10.53;;;;;;;20.93;87.68;100293.74;1750424;81;20904;-84
2021/08/08 00:26:07;;;;;;;11.75;10.70;;;;;;;20.94;87.70;100293.55;1750163;82;20924;-83
2021/08/08 00:28:35;;;;;;;12.03;10.85;;;;;;;20.94;87.73;100288.73;1750166;80;20955;-81
2021/08/08 00:31:02;;;;;;;11.10;10.03;;;;;;;20.94;87.78;100274.89;1750395;82;21104;-81
2021/08/08 00:33:30;;;;;;;11.65;10.55;;;;;;;20.96;87.78;100278.22;1750270;80;20920;-81
2021/08/08 00:36:00;;;;;;;10.95;9.90;;;;;;;20.96;87.79;100289.39;1750295;80;21516;-79
2021/08/08 00:38:28;;;;;;;11.10;10.05;;;;;;;20.96;87.70;100296.89;1750190;82;20968;-80
2021/08/08 00:40:56;;;;;;;12.50;11.20;;;;;;;20.99;87.71;100299.23;1750266;82;21430;-80
2021/08/08 00:43:23;;;;;;;14.03;10.10;;;;;;;21.00;87.72;100297.39;1745110;81;21493;-81
2021/08/08 00:45:50;;;;;;;11.30;10.25;;;;;;;21.01;87.71;100293.23;1736185;82;21521;-81
2021/08/08 00:48:20;;;;;;;12.47;11.20;;;;;;;21.01;87.51;100291.91;1736449;82;21355;-81
2021/08/08 00:50:50;;;;;;;15.00;11.15;;;;;;;21.00;87.57;100286.73;1736229;82;20940;-80
2021/08/08 00:53:19;;;;;;;11.50;10.50;;;;;;;21.00;87.63;100292.06;1736060;82;20925;-81
2021/08/08 00:55:47;;;;;;;11.60;9.60;;;;;;;21.01;87.63;100287.91;1736202;81;21144;-81
2021/08/08 00:58:14;;;;;;;11.05;10.05;;;;;;;21.00;87.61;100290.22;1736427;82;20952;-83
2021/08/08 01:00:42;;;;;;;12.35;11.25;;;;;;;21.03;87.62;100283.72;1735949;82;21411;-81
2021/08/08 01:03:12;;;;;;;11.95;10.95;;;;;;;21.04;87.66;100288.06;1736193;82;20984;-80
2021/08/08 01:05:49;;;;;;;13.53;11.50;;;;;;;21.04;87.62;100287.56;1736219;81;20925;-82
2021/08/08 01:08:23;;;;;;;11.68;10.53;;;;;;;21.04;87.48;100285.41;1735951;82;21203;-83
2021/08/08 01:10:51;;;;;;;11.33;10.00;;;;;;;21.02;87.44;100278.89;1736098;81;21000;-82
2021/08/08 01:13:18;;;;;;;14.13;11.40;;;;;;;21.01;87.25;100285.72;1736336;82;21019;-82
2021/08/08 01:15:47;;;;;;;12.90;11.60;;;;;;;20.98;87.18;100278.06;1736098;82;20916;-82
2021/08/08 01:18:15;;;;;;;14.75;11.95;;;;;;;20.95;87.22;100281.08;1736277;81;20865;-82
2021/08/08 01:20:46;;;;;;;13.28;11.95;;;;;;;20.94;87.36;100280.73;1736396;81;21119;-82
2021/08/08 01:23:14;;;;;;;13.25;11.88;;;;;;;20.95;87.42;100281.08;1736110;82;20897;-81
2021/08/08 01:25:41;;;;;;;13.20;11.75;;;;;;;20.94;87.32;100282.89;1736433;82;20893;-81
2021/08/08 01:28:09;;;;;;;13.18;11.90;;;;;;;20.95;87.44;100293.08;1715081;82;20901;-80
2021/08/08 01:30:38;;;;;;;13.80;11.38;;;;;;;20.95;87.46;100297.08;1736159;81;20968;-81
2021/08/08 01:33:08;;;;;;;12.47;11.28;;;;;;;20.95;87.44;100292.57;1736125;82;21094;-82
2021/08/08 01:35:43;;;;;;;13.25;11.93;;;;;;;20.97;87.46;100296.41;1735983;82;20889;-81
2021/08/08 01:38:12;;;;;;;12.63;11.53;;;;;;;20.96;87.48;100292.89;1736182;81;21438;-81
2021/08/08 01:41:02;;;;;;;14.35;12.70;;;;;;;20.97;87.40;100286.58;1736246;82;20973;-82
2021/08/08 01:43:33;;;;;;;13.20;12.00;;;;;;;20.97;87.42;100288.41;1740634;82;20880;-80
2021/08/08 01:46:05;;;;;;;13.65;12.35;;;;;;;20.97;87.32;100291.91;1749933;81;21161;-80
2021/08/08 01:48:35;;;;;;;13.13;12.03;;;;;;;20.96;87.33;100289.39;1750163;80;20845;-81
2021/08/08 01:51:03;;;;;;;12.37;11.28;;;;;;;20.95;87.32;100288.57;1722692;82;21366;-81
2021/08/08 01:53:30;;;;;;;13.75;12.37;;;;;;;20.96;87.29;100289.39;1750131;82;20945;-82
2021/08/08 01:55:57;;;;;;;15.95;12.93;;;;;;;20.94;87.28;100288.73;1750209;80;20888;-80
2021/08/08 01:58:28;;;;;;;14.03;12.80;;;;;;;20.94;87.20;100296.73;1750394;82;22374;-81
2021/08/08 02:00:57;;;;;;;13.28;11.90;;;;;;;20.92;87.22;100295.58;1750046;82;20966;-80
2021/08/08 02:03:40;;;;;;;13.15;11.95;;;;;;;20.93;87.21;100296.41;1750222;82;20896;-80
2021/08/08 02:06:09;;;;;;;14.55;12.40;;;;;;;20.93;87.20;100291.91;1751884;81;20979;-81
2021/08/08 02:08:37;;;;;;;13.35;12.15;;;;;;;20.94;87.08;100295.39;1751978;82;21004;-80
2021/08/08 02:11:07;;;;;;;15.20;13.70;;;;;;;20.91;87.11;100287.23;1749706;80;21949;-81
2021/08/08 02:13:36;;;;;;;15.38;12.43;;;;;;;20.91;87.23;100289.90;1749089;80;20931;-79
2021/08/08 02:16:03;;;;;;;14.33;12.98;;;;;;;20.91;87.19;100292.06;1750153;82;20935;-80
2021/08/08 02:18:30;;;;;;;13.48;12.23;;;;;;;20.91;87.07;100289.39;1750329;82;20948;-80
2021/08/08 02:20:58;;;;;;;15.18;13.60;;;;;;;20.91;86.93;100287.23;1750187;82;20935;-80
2021/08/08 02:23:24;;;;;;;15.78;13.08;;;;;;;20.88;86.97;100288.41;1750388;80;22102;-78
2021/08/08 02:25:52;;;;;;;14.68;12.25;;;;;;;20.88;86.96;100294.25;1749989;82;20892;-79
2021/08/08 02:28:27;;;;;;;14.28;12.88;;;;;;;20.86;86.88;100294.41;1750065;80;20928;-78
2021/08/08 02:30:54;;;;;;;14.33;12.95;;;;;;;20.85;86.95;100290.56;1750349;82;21358;-79
2021/08/08 02:33:22;;;;;;;13.62;12.33;;;;;;;20.85;86.93;100291.89;1750062;82;20925;-80
2021/08/08 02:35:49;;;;;;;15.10;13.83;;;;;;;20.84;86.80;100296.91;1750596;82;21500;-80
2021/08/08 02:38:16;;;;;;;15.03;13.43;;;;;;;20.83;86.77;100303.22;1722469;82;21355;-79
2021/08/08 02:40:43;;;;;;;14.68;13.32;;;;;;;20.81;86.78;100306.08;1750035;82;20861;-79
2021/08/08 02:43:11;;;;;;;13.25;12.13;;;;;;;20.80;86.92;100303.56;1749832;81;21015;-79
2021/08/08 02:45:40;;;;;;;14.55;13.15;;;;;;;20.79;86.88;100300.58;1736223;82;20937;-80
2021/08/08 02:48:08;;;;;;;13.75;12.33;;;;;;;20.79;86.92;100307.24;1736147;81;21490;-79
2021/08/08 02:50:35;;;;;;;13.62;12.33;;;;;;;20.77;87.00;100311.91;1736192;82;21016;-79
2021/08/08 02:53:03;;;;;;;13.95;12.50;;;;;;;20.78;87.02;100317.55;1736047;82;20881;-79
2021/08/08 02:55:31;;;;;;;12.37;11.30;;;;;;;20.79;87.00;100319.23;1736021;82;21390;-79
2021/08/08 02:58:00;;;;;;;14.85;11.22;;;;;;;20.81;86.90;100310.08;1735971;82;20925;-79
2021/08/08 03:00:29;;;;;;;13.62;12.23;;;;;;;20.80;86.84;100308.39;1736149;82;21149;-79
2021/08/08 03:02:55;;;;;;;14.23;12.90;;;;;;;20.80;86.63;100312.89;1736095;81;20850;-79
2021/08/08 03:05:22;;;;;;;15.28;13.25;;;;;;;20.80;86.67;100315.56;1736144;82;20948;-79
2021/08/08 03:07:49;;;;;;;12.75;11.22;;;;;;;20.80;86.63;100323.55;1736027;82;20937;-78
2021/08/08 03:10:17;;;;;;;12.35;11.35;;;;;;;20.80;86.58;100324.89;1736137;82;20842;-80
2021/08/08 03:12:44;;;;;;;13.60;11.97;;;;;;;20.81;86.66;100330.54;1736012;82;21138;-81
2021/08/08 03:15:12;;;;;;;14.50;12.98;;;;;;;20.82;86.57;100332.22;1736077;82;20924;-80
2021/08/08 03:17:39;;;;;;;13.25;12.07;;;;;;;20.84;86.47;100340.89;1736003;82;20858;-81
2021/08/08 03:20:09;;;;;;;13.68;12.28;;;;;;;20.84;86.31;100339.55;1736192;81;20921;-81
2021/08/08 03:22:36;;;;;;;11.40;10.30;;;;;;;20.85;86.34;100329.21;1736387;82;20972;-80
2021/08/08 03:25:05;;;;;;;12.00;10.88;;;;;;;20.87;86.26;100325.88;1735892;82;21465;-79
2021/08/08 03:27:33;;;;;;;15.10;12.00;;;;;;;20.89;86.13;100321.22;1736400;81;20925;-80
2021/08/08 03:30:08;;;;;;;12.50;11.40;;;;;;;20.91;86.01;100325.89;1736237;82;20924;-79
2021/08/08 03:32:35;;;;;;;12.20;11.18;;;;;;;20.91;85.92;100329.38;1715386;82;20947;-78
2021/08/08 03:35:06;;;;;;;12.53;11.12;;;;;;;20.91;85.78;100340.05;1736010;81;20846;-79
2021/08/08 03:37:33;;;;;;;12.50;11.33;;;;;;;20.93;85.80;100339.89;1735655;82;22024;-79
2021/08/08 03:39:59;;;;;;;12.20;10.95;;;;;;;20.95;85.86;100339.22;1736100;82;21063;-80
2021/08/08 03:42:26;;;;;;;15.00;12.82;;;;;;;20.98;85.68;100337.55;1736615;82;20921;-81
2021/08/08 03:44:53;;;;;;;13.75;12.45;;;;;;;20.99;85.48;100337.07;1740409;81;20935;-80
2021/08/08 03:47:20;;;;;;;13.25;11.43;;;;;;;21.00;85.33;100343.55;1744287;82;21007;-81
2021/08/08 03:49:47;;;;;;;13.05;11.75;;;;;;;21.02;85.06;100350.05;1744310;81;21525;-81
2021/08/08 03:52:16;;;;;;;13.18;11.90;;;;;;;21.04;85.02;100350.72;1744154;82;20916;-81
2021/08/08 03:54:43;;;;;;;15.05;11.63;;;;;;;21.06;84.89;100352.73;1744258;82;20945;-81
2021/08/08 03:57:10;;;;;;;14.40;12.60;;;;;;;21.07;84.84;100359.71;1744428;82;21382;-84
2021/08/08 03:59:38;;;;;;;14.03;12.68;;;;;;;21.09;84.75;100361.72;1744214;82;20960;-82
2021/08/08 04:02:06;;;;;;;14.13;13.03;;;;;;;21.13;84.71;100363.05;1744623;82;21505;-83
2021/08/08 04:04:33;;;;;;;14.43;12.53;;;;;;;21.15;84.42;100369.05;1744322;82;20893;-83
2021/08/08 04:06:59;;;;;;;14.90;13.32;;;;;;;21.16;84.36;100368.55;1744672;82;20992;-82
2021/08/08 04:09:26;;;;;;;13.50;12.20;;;;;;;21.17;84.43;100371.05;1744481;82;20936;-81
2021/08/08 04:11:54;;;;;;;13.83;12.63;;;;;;;21.17;84.38;100367.05;1744699;82;20924;-79
2021/08/08 04:14:22;;;;;;;14.15;12.90;;;;;;;21.19;84.33;100368.20;1744369;81;21984;-79
2021/08/08 04:16:50;;;;;;;15.10;12.00;;;;;;;21.19;84.12;100364.20;1744499;82;20960;-80
2021/08/08 04:19:18;;;;;;;12.85;11.45;;;;;;;21.21;84.07;100368.87;1744394;82;21015;-81
2021/08/08 04:21:45;;;;;;;15.72;11.78;;;;;;;21.22;84.07;100364.70;1744611;81;20849;-79
2021/08/08 04:24:12;;;;;;;16.75;12.33;;;;;;;21.26;83.95;100375.89;1745515;82;21441;-80
2021/08/08 04:26:39;;;;;;;12.73;11.63;;;;;;;21.29;83.82;100372.87;1745762;82;21468;-79
2021/08/08 04:29:06;;;;;;;13.13;11.90;;;;;;;21.30;83.86;100378.05;1718913;82;20921;-80
2021/08/08 04:31:33;;;;;;;13.18;11.22;;;;;;;21.32;83.65;100377.38;1747835;82;20944;-81
2021/08/08 04:34:00;;;;;;;13.93;11.68;;;;;;;21.36;83.47;100388.53;1718248;81;20905;-81
2021/08/08 04:36:27;;;;;;;13.45;12.10;;;;;;;21.39;83.26;100392.69;1745131;82;20877;-82
2021/08/08 04:38:54;;;;;;;13.35;12.13;;;;;;;21.39;83.10;100393.55;1745015;82;21160;-83
2021/08/08 04:41:21;;;;;;;13.50;12.10;;;;;;;21.39;82.96;100394.03;1744871;81;21398;-81
2021/08/08 04:43:48;;;;;;;15.48;12.37;;;;;;;21.37;82.73;100384.88;1744694;82;20988;-81
2021/08/08 04:46:15;;;;;;;12.58;11.38;;;;;;;21.37;82.61;100388.05;1750382;81;20912;-79
2021/08/08 04:48:42;;;;;;;13.25;11.88;;;;;;;21.33;82.56;100392.38;1750697;82;20975;-79
2021/08/08 04:51:09;;;;;;;12.85;11.65;;;;;;;21.30;82.51;100392.72;1750319;82;21489;-82
2021/08/08 04:53:36;;;;;;;12.80;11.63;;;;;;;21.29;82.48;100372.36;1750762;82;20920;-82
2021/08/08 04:56:04;;;;;;;13.05;11.73;;;;;;;21.28;82.48;100372.55;1750399;82;20935;-80
2021/08/08 04:58:30;;;;;;;12.75;11.55;;;;;;;21.27;82.61;100378.36;1750492;80;20943;-80
2021/08/08 05:00:58;;;;;;;12.25;11.30;;;;;;;21.28;82.62;100370.71;1750226;80;21087;-82
2021/08/08 05:03:25;;;;;;;16.07;14.45;;;;;;;21.29;82.61;100371.54;1750455;80;21480;-81
2021/08/08 05:05:53;;;;;;;13.80;12.43;;;;;;;21.28;82.79;100369.37;1750275;82;20881;-83
2021/08/08 05:08:20;;;;;;;13.68;12.33;;;;;;;21.29;82.74;100372.36;1750755;80;21362;-83
2021/08/08 05:10:47;;;;;;;13.98;12.78;;;;;;;21.30;82.79;100366.05;1750251;80;20892;-82
2021/08/08 05:13:13;;;;;;;14.55;13.28;;;;;;;21.31;82.66;100363.70;1750517;82;21409;-83
2021/08/08 05:15:43;;;;;;;14.98;13.43;;;;;;;21.37;82.52;100369.38;1750122;82;20925;-82
2021/08/08 05:18:10;;;;;;;13.38;12.28;;;;;;;21.39;82.27;100370.02;1750178;80;20908;-79
2021/08/08 05:20:37;;;;;;;13.43;12.13;;;;;;;21.41;82.40;100373.38;1750123;80;20873;-80
2021/08/08 05:23:04;;;;;;;17.62;12.60;;;;;;;21.45;82.37;100360.87;1750146;82;20908;-80
2021/08/08 05:25:32;;;;;;;12.65;11.35;;;;;;;21.47;82.13;100357.53;1750183;82;20959;-79
2021/08/08 05:28:00;;;;;;;12.45;11.33;;;;;;;21.49;82.18;100358.70;1750134;82;21976;-79
2021/08/08 05:30:26;;;;;;;12.73;11.57;;;;;;;21.51;82.39;100357.53;1749820;80;20869;-78
2021/08/08 05:32:53;;;;;;;12.95;11.65;;;;;;;21.55;82.31;100350.54;1750554;82;20896;-79
2021/08/08 05:35:20;;;;;;;12.63;11.33;;;;;;;21.61;82.13;100353.36;1750383;80;20968;-77
2021/08/08 05:37:47;;;;;;;13.25;11.85;;;;;;;21.65;81.82;100357.33;1750347;82;21350;-83
2021/08/08 05:40:15;;;;;;;12.20;11.20;;;;;;;21.71;81.48;100354.48;1750259;82;21549;-77
2021/08/08 05:42:48;;;;;;;13.32;12.03;;;;;;;21.77;81.30;100356.98;1750366;82;20893;-74
2021/08/08 05:45:17;;;;;;;13.75;12.60;;;;;;;21.85;81.31;100362.28;1750440;81;20952;-82
2021/08/08 05:47:44;;;;;;;11.88;10.68;;;;;;;21.96;81.04;100362.42;1750639;80;21342;-84
2021/08/08 05:50:11;;;;;;;12.55;11.35;;;;;;;22.08;80.67;100361.88;1750434;82;20972;-84
2021/08/08 05:52:40;;;;;;;12.40;11.10;;;;;;;22.20;80.27;100364.16;1750215;82;20916;-85
2021/08/08 05:55:08;;;;;;;11.97;10.88;;;;;;;22.32;79.97;100366.78;1722778;82;20853;-83
2021/08/08 05:57:36;;;;;;;12.40;11.10;;;;;;;22.44;79.62;100364.57;1750462;80;21325;-82
2021/08/08 06:00:06;;;;;;;12.95;11.85;;;;;;;22.54;79.41;100360.67;1750269;82;20951;-84
2021/08/08 06:02:35;;;;;;;12.15;10.95;;;;;;;22.68;78.76;100360.41;1749119;80;20932;-84
2021/08/08 06:05:03;;;;;;;12.58;11.55;;;;;;;22.80;78.11;100358.66;1750224;82;21124;-85
2021/08/08 06:07:31;;;;;;;12.43;11.03;;;;;;;22.95;77.86;100354.20;1750207;82;21409;-83
2021/08/08 06:10:01;;;;;;;11.97;10.98;;;;;;;23.20;77.21;100358.86;1750126;82;20967;-82
2021/08/08 06:12:29;;;;;;;14.07;11.75;;;;;;;23.56;76.73;100358.17;1750967;81;20936;-83
2021/08/08 06:14:58;;;;;;;11.90;10.82;;;;;;;23.94;75.63;100361.62;1750296;82;20841;-82
2021/08/08 06:17:24;;;;;;;12.50;11.35;;;;;;;24.33;74.78;100364.48;1750700;82;22126;-81
2021/08/08 06:19:52;;;;;;;11.73;10.72;;;;;;;24.70;73.13;100362.66;1750153;82;21109;-85
2021/08/08 06:22:20;;;;;;;12.58;11.38;;;;;;;24.96;71.33;100353.19;1750550;82;20940;-83
2021/08/08 06:24:46;;;;;;;13.22;11.93;;;;;;;25.20;70.54;100354.15;1750054;80;20908;-83
2021/08/08 06:27:13;;;;;;;13.00;11.55;;;;;;;25.42;69.19;100358.97;1750479;82;20956;-83
2021/08/08 06:29:40;;;;;;;11.78;10.88;;;;;;;25.66;68.97;100350.14;1750399;80;21105;-85
2021/08/08 06:32:08;;;;;;;12.47;10.98;;;;;;;26.03;67.80;100346.23;1750133;82;20857;-83
2021/08/08 06:34:35;;;;;;;11.00;9.93;;;;;;;26.45;66.60;100348.84;1750286;82;21362;-87
2021/08/08 06:37:02;;;;;;;12.53;11.15;;;;;;;26.87;65.16;100345.01;1750125;81;20944;-87
2021/08/08 06:39:32;;;;;;;11.63;10.63;;;;;;;27.22;62.95;100352.10;1750053;82;20865;-88
2021/08/08 06:41:59;;;;;;;11.70;10.50;;;;;;;27.54;62.44;100350.91;1750287;80;21130;-77
2021/08/08 06:44:28;;;;;;;10.60;9.35;;;;;;;27.88;61.94;100345.77;1749500;82;20905;-74
2021/08/08 06:46:55;;;;;;;10.58;9.53;;;;;;;28.33;60.60;100355.23;1743954;82;20857;-76
2021/08/08 06:49:22;;;;;;;10.68;9.83;;;;;;;28.76;59.71;100350.53;1744361;82;20913;-76
2021/08/08 06:51:50;;;;;;;10.95;9.85;;;;;;;29.22;58.22;100339.10;1744143;82;20937;-78
2021/08/08 06:54:17;;;;;;;10.45;9.45;;;;;;;29.63;57.33;100332.23;1744410;81;22133;-77
2021/08/08 06:56:43;;;;;;;11.83;10.78;;;;;;;29.89;56.29;100331.14;1744016;81;20909;-79
2021/08/08 06:59:10;;;;;;;12.37;11.03;;;;;;;30.07;55.55;100332.46;1744370;82;20972;-77
2021/08/08 07:01:38;;;;;;;11.15;10.13;;;;;;;30.16;54.92;100324.86;1743968;82;21413;-75
2021/08/08 07:04:05;;;;;;;9.70;8.90;;;;;;;30.34;54.56;100324.02;1744107;82;21436;-74
2021/08/08 07:06:32;;;;;;;10.60;9.78;;;;;;;30.52;53.48;100327.19;1743975;82;22157;-76
2021/08/08 07:09:01;;;;;;;12.30;9.98;;;;;;;30.76;53.13;100330.79;1744251;82;21450;-77
2021/08/08 07:11:29;;;;;;;10.85;9.95;;;;;;;30.88;52.16;100334.89;1743911;82;20967;-77
2021/08/08 07:13:57;;;;;;;10.53;9.70;;;;;;;31.06;52.12;100323.98;1743979;82;20897;-79
2021/08/08 07:16:24;;;;;;;10.43;9.43;;;;;;;31.41;51.62;100324.48;1744082;82;20889;-76
2021/08/08 07:18:51;;;;;;;12.03;9.88;;;;;;;31.79;50.72;100314.51;1744258;82;21926;-74
2021/08/08 07:21:18;;;;;;;10.40;9.38;;;;;;;32.12;49.22;100325.73;1743969;81;21088;-74
2021/08/08 07:23:45;;;;;;;14.50;10.55;;;;;;;32.20;48.52;100326.72;1744192;82;21407;-75
2021/08/08 07:26:12;;;;;;;11.43;10.32;;;;;;;32.30;48.05;100325.53;1743890;81;20976;-76
2021/08/08 07:28:39;;;;;;;12.07;10.98;;;;;;;32.37;48.36;100326.23;1744036;82;20932;-73
2021/08/08 07:31:06;;;;;;;11.00;10.00;;;;;;;32.53;48.55;100323.83;1745563;82;21490;-74
2021/08/08 07:33:33;;;;;;;10.78;9.85;;;;;;;32.76;47.66;100322.30;1744190;82;21439;-73
2021/08/08 07:36:00;;;;;;;10.50;9.65;;;;;;;33.11;47.18;100320.45;1744231;82;20952;-73
2021/08/08 07:38:27;;;;;;;11.38;10.43;;;;;;;33.40;46.75;100319.77;1716328;82;20889;-73
2021/08/08 07:40:54;;;;;;;11.12;10.13;;;;;;;33.64;45.90;100319.05;1745261;82;20872;-72
2021/08/08 07:43:21;;;;;;;11.18;10.20;;;;;;;33.60;45.33;100313.27;1747431;79;21460;-70
2021/08/08 07:45:48;;;;;;;10.80;9.88;;;;;;;33.42;45.34;100309.47;1743769;82;21185;-72
2021/08/08 07:48:15;;;;;;;10.45;9.55;;;;;;;33.16;45.59;100311.00;1737780;82;20928;-74
2021/08/08 07:50:44;;;;;;;11.45;10.48;;;;;;;33.01;45.90;100305.58;1736235;82;20940;-75
2021/08/08 07:53:12;;;;;;;11.43;10.25;;;;;;;33.05;46.54;100303.20;1736206;82;20976;-78
2021/08/08 07:55:49;;;;;;;11.10;10.10;;;;;;;33.29;46.23;100298.96;1736054;81;21014;-74
2021/08/08 08:00:18;;;;;;;11.48;10.35;;;;;;;33.94;45.30;100300.89;1816358;79;22633;-74
2021/08/08 08:02:46;;;;;;;15.60;11.03;;;;;;;34.18;43.66;100307.44;1789520;80;20911;-72
2021/08/08 08:05:15;;;;;;;10.70;9.78;;;;;;;34.30;44.20;100295.84;1789622;80;21887;-73
2021/08/08 08:07:42;;;;;;;11.05;10.08;;;;;;;34.50;43.64;100299.84;1789385;80;20915;-74
2021/08/08 08:10:10;;;;;;;10.93;10.03;;;;;;;34.56;42.59;100296.91;1789156;80;20912;-73
2021/08/08 08:12:39;;;;;;;10.50;9.48;;;;;;;34.65;42.95;100302.73;1789345;80;20964;-74
2021/08/08 08:15:07;;;;;;;10.98;10.18;;;;;;;34.94;43.08;100302.41;1789502;80;20915;-75
2021/08/08 08:17:36;;;;;;;11.50;10.55;;;;;;;35.17;42.42;100305.30;1789312;80;21425;-75
2021/08/08 08:20:04;;;;;;;10.28;9.18;;;;;;;35.07;41.45;100310.12;1789516;80;20900;-74
2021/08/08 08:22:36;;;;;;;10.53;9.58;;;;;;;34.95;42.23;100313.05;1789579;79;20872;-72
2021/08/08 08:25:03;;;;;;;11.50;10.43;;;;;;;35.01;42.51;100301.08;1759262;80;20864;-75
2021/08/08 08:27:31;;;;;;;13.30;11.28;;;;;;;35.18;42.33;100305.05;1789581;80;21390;-72
2021/08/08 08:29:58;;;;;;;10.75;9.85;;;;;;;35.38;41.71;100311.16;1789435;80;21584;-75
2021/08/08 08:32:25;;;;;;;10.78;9.83;;;;;;;35.37;41.52;100320.41;1789685;80;21499;-74
2021/08/08 08:34:52;;;;;;;10.72;9.68;;;;;;;35.37;41.04;100323.14;1789730;80;20985;-73
2021/08/08 08:37:19;;;;;;;9.93;9.15;;;;;;;35.40;40.95;100325.35;1789832;80;20944;-76
2021/08/08 08:39:47;;;;;;;11.10;9.88;;;;;;;35.42;41.92;100325.09;1789247;80;20970;-79
2021/08/08 08:42:15;;;;;;;11.70;10.40;;;;;;;35.57;42.06;100324.33;1789576;80;21037;-78
2021/08/08 08:44:45;;;;;;;10.18;9.23;;;;;;;35.66;41.78;100327.70;1789273;80;21421;-83
2021/08/08 08:47:15;;;;;;;9.95;9.15;;;;;;;35.73;42.09;100322.00;1789634;80;20829;-83
2021/08/08 08:49:47;;;;;;;10.48;9.65;;;;;;;35.73;41.06;100317.91;1758744;80;20892;-80
2021/08/08 08:52:21;;;;;;;9.85;9.03;;;;;;;35.70;40.76;100317.05;1789886;80;21559;-81
2021/08/08 08:54:54;;;;;;;10.43;9.43;;;;;;;35.41;41.29;100314.70;1789311;80;20876;-80
2021/08/08 08:57:19;;;;;;;10.32;9.45;;;;;;;35.19;41.48;100315.41;1788538;80;20947;-79
2021/08/08 08:59:47;;;;;;;9.50;8.80;;;;;;;35.04;41.48;100316.92;1785885;80;20944;-79
2021/08/08 09:02:14;;;;;;;10.80;9.85;;;;;;;34.91;41.48;100323.34;1784061;80;21374;-82
2021/08/08 09:04:41;;;;;;;9.70;8.90;;;;;;;34.83;41.99;100323.30;1784249;80;21294;-80
2021/08/08 09:07:09;;;;;;;11.00;9.55;;;;;;;34.76;42.50;100328.16;1784090;80;21112;-82
2021/08/08 09:09:37;;;;;;;11.15;9.28;;;;;;;34.59;41.91;100324.16;1784256;80;20979;-78
2021/08/08 09:12:05;;;;;;;10.48;9.58;;;;;;;34.41;42.70;100332.98;1783883;80;21034;-81
2021/08/08 09:14:34;;;;;;;9.90;9.00;;;;;;;34.25;43.01;100340.17;1783548;80;20896;-81
2021/08/08 09:17:01;;;;;;;9.23;8.50;;;;;;;34.16;43.11;100338.17;1783794;80;20865;-82
2021/08/08 09:19:34;;;;;;;10.53;9.43;;;;;;;34.06;44.09;100341.04;1783095;80;22011;-80
2021/08/08 09:22:03;;;;;;;10.08;9.25;;;;;;;34.15;43.74;100346.89;1783361;80;21425;-80
2021/08/08 09:24:33;;;;;;;8.98;8.10;;;;;;;34.17;43.85;100333.81;1783487;80;21401;-81
2021/08/08 09:27:09;;;;;;;9.80;9.00;;;;;;;34.31;44.88;100327.45;1783531;80;20869;-80
2021/08/08 09:29:41;;;;;;;8.78;8.08;;;;;;;34.54;43.71;100333.11;1783715;80;20921;-79
2021/08/08 09:32:08;;;;;;;9.40;8.50;;;;;;;34.69;43.85;100333.83;1783873;80;21131;-80
2021/08/08 09:34:38;;;;;;;9.50;8.63;;;;;;;34.86;43.52;100325.50;1783840;80;21125;-79
2021/08/08 09:37:17;;;;;;;9.63;8.78;;;;;;;34.96;43.42;100324.77;1783709;80;20967;-80
2021/08/08 09:39:44;;;;;;;10.45;9.43;;;;;;;35.07;43.17;100330.02;1783728;80;20896;-79
2021/08/08 09:42:19;;;;;;;9.55;8.83;;;;;;;35.05;42.46;100337.64;1783952;80;20927;-79
2021/08/08 09:45:01;;;;;;;9.03;7.97;;;;;;;35.08;42.11;100333.05;1783990;80;21114;-79
2021/08/08 09:47:41;;;;;;;9.68;8.73;;;;;;;35.18;42.43;100335.59;1783785;80;20983;-83
2021/08/08 09:50:17;;;;;;;9.63;8.73;;;;;;;35.28;42.40;100340.56;1784004;80;20964;-81
2021/08/08 09:52:53;;;;;;;9.93;8.00;;;;;;;35.38;41.93;100333.52;1783624;80;20940;-81
2021/08/08 09:55:37;;;;;;;9.25;8.33;;;;;;;35.54;42.22;100331.70;1783594;80;20885;-81
2021/08/08 09:58:20;;;;;;;11.22;8.15;;;;;;;35.73;42.18;100344.34;1783230;80;20920;-80
2021/08/08 10:00:46;;;;;;;10.13;7.75;;;;;;;35.81;41.22;100347.39;1723120;82;20995;-80
2021/08/08 10:03:15;;;;;;;8.55;7.95;;;;;;;35.81;41.47;100348.75;1752509;82;20904;-80
2021/08/08 10:05:44;;;;;;;9.33;8.50;;;;;;;35.90;41.12;100348.52;1752762;80;20912;-78
2021/08/08 10:08:15;;;;;;;8.13;7.22;;;;;;;35.97;40.97;100352.36;1752531;80;20932;-77
2021/08/08 10:10:46;;;;;;;8.30;7.53;;;;;;;36.00;41.21;100352.39;1752774;80;21404;-79
2021/08/08 10:13:39;;;;;;;8.98;8.18;;;;;;;36.11;41.32;100349.97;1752406;80;20959;-79
2021/08/08 10:16:09;;;;;;;9.40;8.50;;;;;;;36.17;39.98;100350.81;1752840;82;21517;-80
2021/08/08 10:18:42;;;;;;;9.40;8.60;;;;;;;35.93;40.85;100356.73;1752581;82;21476;-78
2021/08/08 10:21:09;;;;;;;9.33;8.53;;;;;;;35.70;41.06;100352.53;1752501;80;20888;-79
2021/08/08 10:23:37;;;;;;;9.85;7.92;;;;;;;35.66;41.44;100358.23;1752139;80;21130;-78
2021/08/08 10:26:04;;;;;;;8.25;7.55;;;;;;;35.70;41.06;100355.25;1752487;80;20920;-80
2021/08/08 10:28:32;;;;;;;9.58;8.68;;;;;;;35.78;41.63;100356.67;1752578;82;21390;-82
2021/08/08 10:31:03;;;;;;;8.20;7.40;;;;;;;35.97;41.08;100360.55;1752850;82;20972;-80
2021/08/08 10:33:31;;;;;;;8.88;7.95;;;;;;;36.00;40.28;100359.22;1752710;80;21359;-81
2021/08/08 10:35:57;;;;;;;8.00;7.40;;;;;;;35.86;40.41;100362.44;1733401;82;21110;-79
2021/08/08 10:38:26;;;;;;;9.20;8.30;;;;;;;35.89;40.69;100361.89;1752414;82;20849;-80
2021/08/08 10:40:53;;;;;;;9.43;8.43;;;;;;;35.95;40.43;100357.81;1732538;82;20876;-80
2021/08/08 10:43:27;;;;;;;8.60;7.87;;;;;;;35.96;40.30;100364.38;1752610;82;20900;-79
2021/08/08 10:46:11;;;;;;;9.28;8.45;;;;;;;35.89;40.79;100364.62;1752452;82;20912;-80
2021/08/08 10:48:42;;;;;;;11.12;8.03;;;;;;;35.81;40.98;100362.95;1752538;80;21162;-80
2021/08/08 10:51:23;;;;;;;8.15;7.37;;;;;;;35.72;41.06;100361.27;1752472;80;20956;-80
2021/08/08 10:54:07;;;;;;;8.63;7.85;;;;;;;35.66;41.16;100365.90;1752911;82;20884;-80
2021/08/08 10:56:45;;;;;;;8.75;7.97;;;;;;;35.50;41.15;100366.30;1752524;82;21486;-80
2021/08/08 10:59:21;;;;;;;8.45;7.70;;;;;;;35.40;41.07;100364.09;1756788;80;20999;-79
2021/08/08 11:02:07;;;;;;;8.78;8.03;;;;;;;35.20;41.76;100364.23;1775121;80;21091;-78
2021/08/08 11:04:34;;;;;;;7.95;7.35;;;;;;;35.07;42.28;100358.64;1775084;80;20905;-78
2021/08/08 11:07:04;;;;;;;8.75;7.95;;;;;;;34.93;42.20;100358.82;1775289;80;20901;-78
2021/08/08 11:09:36;;;;;;;9.23;7.92;;;;;;;34.67;43.09;100361.86;1775101;80;20892;-79
2021/08/08 11:12:03;;;;;;;10.57;7.77;;;;;;;34.50;43.36;100366.02;1775353;80;20936;-79
2021/08/08 11:14:30;;;;;;;13.90;8.28;;;;;;;34.43;43.03;100358.05;1775282;80;21808;-78
2021/08/08 11:17:07;;;;;;;9.20;8.40;;;;;;;34.40;43.55;100361.30;1775297;80;20987;-84
2021/08/08 11:19:37;;;;;;;9.15;7.83;;;;;;;34.38;43.79;100360.73;1775946;80;20940;-85
2021/08/08 11:22:12;;;;;;;8.43;7.75;;;;;;;34.25;43.47;100365.22;1775845;80;20951;-85
2021/08/08 11:24:40;;;;;;;8.80;7.87;;;;;;;34.05;44.27;100367.95;1775752;80;20928;-86